MMDO/DGO METAR and TAF weather

Enter ICAO airport designator
Station Type Date Time Source
MMDO METAR 2021/07/29 00:42 UTC NOAA

MMDO 290042Z 01006KT 14SM FEW020CB 25/05 A3017 RMK 8/300 ISOL CI


Station Type Date Time Source
MMDO Decoded METAR 2021/07/29 00:42 UTC NOAA

Durango Airport, Mexico (MMDO) 24-08N 104-32W
Jul 28, 2021 - 08:42 PM EDT / 2021.07.29 0042 UTC
Wind: from the N (010 degrees) at 7 MPH (6 KT):0
Visibility: 14 mile(s):0
Sky conditions: mostly clear
Weather: Cumulonimbus clouds observed
Temperature: 77 F (25 C)
Dew Point: 41 F (5 C)
Relative Humidity: 27%
Pressure (altimeter): 30.17 in. Hg (1021 hPa)
ob: MMDO 290042Z 01006KT 14SM FEW020CB 25/05 A3017 RMK 8/300 ISOL CI
cycle: 0

Station Type Date Time Source
MMDO TAF 2021/07/28 18:07 UTC NOAA

TAF MMDO 281705Z 2818/2918 24010KT P6SM SCT025
TEMPO 2822/2902 5SM TSRA BKN025CB
FM290600 00000KT P6SM BKN080
FM291300 00000KT P6SM SKC

Example: see airport list